createdAt,value
2023-03-25T00:01:19.154Z,5.37
2023-03-25T00:03:53.413Z,5.38
2023-03-25T00:06:26.744Z,5.40
2023-03-25T00:09:02.232Z,5.39
2023-03-25T00:11:36.429Z,5.38
2023-03-25T00:14:11.238Z,5.35
2023-03-25T00:16:46.229Z,5.36
2023-03-25T00:19:21.380Z,5.35
2023-03-25T00:21:55.021Z,5.33
2023-03-25T00:24:28.857Z,5.35
2023-03-25T00:27:02.663Z,5.38
2023-03-25T00:29:36.491Z,5.44
2023-03-25T00:32:09.972Z,5.49
2023-03-25T00:34:44.970Z,5.55
2023-03-25T00:37:20.224Z,5.59
2023-03-25T00:39:53.800Z,5.58
2023-03-25T00:42:27.314Z,5.58
2023-03-25T00:45:01.008Z,5.62
2023-03-25T00:47:34.532Z,5.60
2023-03-25T00:50:09.944Z,5.58
2023-03-25T00:52:43.376Z,5.59
2023-03-25T00:55:17.337Z,5.59
2023-03-25T00:57:50.858Z,5.57
2023-03-25T01:00:24.707Z,5.61
2023-03-25T01:02:58.472Z,5.62
2023-03-25T01:05:32.107Z,5.66
2023-03-25T01:08:06.306Z,5.71
2023-03-25T01:10:39.634Z,5.71
2023-03-25T01:13:12.765Z,5.69
2023-03-25T01:15:46.088Z,5.74
2023-03-25T01:18:19.654Z,5.76
2023-03-25T01:20:53.166Z,5.76
2023-03-25T01:23:26.485Z,5.77
2023-03-25T01:26:01.369Z,5.77
2023-03-25T01:28:34.730Z,5.77
2023-03-25T01:31:13.325Z,5.75
2023-03-25T01:33:46.967Z,5.77
2023-03-25T01:36:21.542Z,5.79
2023-03-25T01:38:54.910Z,5.76
2023-03-25T01:41:39.140Z,5.76
2023-03-25T01:44:10.396Z,5.77
2023-03-25T01:46:45.597Z,5.78
2023-03-25T01:49:24.060Z,5.78
2023-03-25T01:52:00.966Z,5.81
2023-03-25T01:54:35.053Z,5.87
2023-03-25T01:57:10.458Z,5.86
2023-03-25T01:59:44.697Z,5.90
2023-03-25T02:02:19.460Z,5.94
2023-03-25T02:04:57.902Z,5.98
2023-03-25T02:07:34.416Z,5.98
2023-03-25T02:10:11.248Z,6.03
2023-03-25T02:12:45.928Z,6.07
2023-03-25T02:15:21.078Z,6.06
2023-03-25T02:18:14.860Z,6.04
2023-03-25T02:21:37.706Z,6.06
2023-03-25T02:24:37.164Z,6.06
2023-03-25T02:27:28.483Z,6.10
2023-03-25T02:30:32.541Z,6.08
2023-03-25T02:33:41.919Z,6.06
2023-03-25T02:39:27.973Z,6.43
2023-03-25T02:42:04.284Z,6.36
2023-03-25T02:44:41.762Z,6.39
2023-03-25T02:47:17.946Z,6.37
2023-03-25T02:49:54.938Z,6.39
2023-03-25T02:52:31.506Z,6.43
2023-03-25T02:55:10.782Z,6.50
2023-03-25T02:57:47.824Z,6.57
2023-03-25T03:00:26.912Z,6.65
2023-03-25T03:03:02.803Z,6.76
2023-03-25T03:05:40.036Z,6.82
2023-03-25T03:08:25.001Z,6.89
2023-03-25T03:11:02.619Z,6.93
2023-03-25T03:13:41.810Z,6.95
2023-03-25T03:16:18.384Z,7.00
2023-03-25T03:18:56.993Z,7.06
2023-03-25T03:21:33.291Z,7.09
2023-03-25T03:24:09.926Z,7.18
2023-03-25T03:26:47.123Z,7.18
2023-03-25T03:29:23.499Z,7.18
2023-03-25T03:32:06.564Z,7.23
2023-03-25T03:34:39.733Z,7.24
2023-03-25T03:37:12.978Z,7.24
2023-03-25T03:39:47.588Z,7.30
2023-03-25T03:45:07.210Z,7.32
2023-03-25T03:47:43.695Z,7.22
2023-03-25T03:50:20.665Z,7.28
2023-03-25T03:52:57.409Z,7.33
2023-03-25T03:55:36.029Z,7.37
2023-03-25T03:58:15.409Z,7.40
2023-03-25T04:00:52.198Z,7.42
2023-03-25T04:03:28.584Z,7.46
2023-03-25T04:06:07.376Z,7.50
2023-03-25T04:08:44.654Z,7.56
2023-03-25T04:11:21.245Z,7.55
2023-03-25T04:13:57.021Z,7.53
2023-03-25T04:16:33.979Z,7.56
2023-03-25T04:19:07.351Z,7.64
2023-03-25T04:21:41.739Z,7.66
2023-03-25T04:24:17.080Z,7.68
2023-03-25T04:26:52.189Z,7.71
2023-03-25T04:29:25.755Z,7.77
2023-03-25T04:31:59.488Z,7.81
2023-03-25T04:34:32.949Z,7.84
2023-03-25T04:37:09.780Z,7.82
2023-03-25T04:39:42.920Z,7.83
2023-03-25T04:42:17.966Z,7.84
2023-03-25T04:44:51.070Z,7.87
2023-03-25T04:47:26.218Z,7.82
2023-03-25T04:49:59.346Z,7.96
2023-03-25T04:52:34.761Z,8.04
2023-03-25T04:55:10.731Z,8.08
2023-03-25T04:57:43.920Z,8.16
2023-03-25T05:00:19.788Z,8.22
2023-03-25T05:02:55.336Z,8.26
2023-03-25T05:05:28.730Z,8.34
2023-03-25T05:08:02.196Z,8.38
2023-03-25T05:10:36.570Z,8.43
2023-03-25T05:13:11.300Z,8.51
2023-03-25T05:15:44.779Z,8.58
2023-03-25T05:18:19.022Z,8.56
2023-03-25T05:20:53.657Z,8.58
2023-03-25T05:23:27.328Z,8.63
2023-03-25T05:26:00.583Z,8.63
2023-03-25T05:28:34.001Z,8.66
2023-03-25T05:31:08.776Z,8.74
2023-03-25T05:33:43.504Z,8.81
2023-03-25T05:36:17.239Z,8.86
2023-03-25T05:38:50.863Z,8.85
2023-03-25T05:41:26.493Z,8.87
2023-03-25T05:44:00.621Z,8.76
2023-03-25T05:46:34.621Z,8.69
2023-03-25T05:49:07.914Z,8.65
2023-03-25T05:51:42.100Z,8.69
2023-03-25T05:54:15.255Z,8.70
2023-03-25T05:56:48.776Z,8.71
2023-03-25T05:59:22.210Z,8.72
2023-03-25T06:01:55.965Z,8.87
2023-03-25T06:04:29.693Z,9.11
2023-03-25T06:07:04.024Z,9.34
2023-03-25T06:09:37.535Z,9.63
2023-03-25T06:12:11.170Z,9.69
2023-03-25T06:14:45.919Z,9.65
2023-03-25T06:17:22.170Z,9.61
2023-03-25T06:19:55.580Z,9.50
2023-03-25T06:22:29.082Z,9.36
2023-03-25T06:25:04.068Z,9.26
2023-03-25T06:27:38.338Z,9.14
2023-03-25T06:30:14.873Z,9.02
2023-03-25T06:32:50.640Z,8.90
2023-03-25T06:35:24.479Z,8.83
2023-03-25T06:37:58.064Z,8.78
2023-03-25T06:40:33.196Z,8.64
2023-03-25T06:43:07.644Z,8.48
2023-03-25T06:46:01.783Z,8.28
2023-03-25T06:48:38.162Z,8.02
2023-03-25T06:51:12.209Z,7.85
2023-03-25T06:53:45.416Z,7.64
2023-03-25T06:56:19.197Z,7.49
2023-03-25T06:58:52.460Z,7.37
2023-03-25T07:01:26.188Z,7.29
2023-03-25T07:03:59.591Z,7.31
2023-03-25T07:06:33.986Z,7.38
2023-03-25T07:09:07.770Z,7.42
2023-03-25T07:11:41.413Z,7.42
2023-03-25T07:14:14.735Z,7.40
2023-03-25T07:16:47.432Z,7.36
2023-03-25T07:19:21.150Z,7.29
2023-03-25T07:21:54.499Z,7.26
2023-03-25T07:24:28.085Z,7.23
2023-03-25T07:27:01.500Z,7.18
2023-03-25T07:29:35.406Z,7.17
2023-03-25T07:37:14.589Z,7.19
2023-03-25T07:39:48.135Z,7.20
2023-03-25T07:42:21.590Z,7.22
2023-03-25T07:44:59.300Z,7.25
2023-03-25T07:47:34.568Z,7.28
2023-03-25T07:50:09.920Z,7.26
2023-03-25T07:52:43.247Z,7.28
2023-03-25T07:55:17.918Z,7.31
2023-03-25T07:57:51.297Z,7.34
2023-03-25T08:00:25.211Z,7.32
2023-03-25T08:02:58.576Z,7.31
2023-03-25T08:05:32.402Z,7.32
2023-03-25T08:08:07.787Z,7.35
2023-03-25T08:10:43.010Z,7.35
2023-03-25T08:13:16.817Z,7.34
2023-03-25T08:15:50.475Z,7.35
2023-03-25T08:18:24.083Z,7.35
2023-03-25T08:20:57.512Z,7.36
2023-03-25T08:23:31.712Z,7.41
2023-03-25T08:28:39.169Z,7.48
2023-03-25T08:31:12.668Z,7.55
2023-03-25T08:33:46.150Z,7.54
2023-03-25T08:36:22.223Z,7.52
2023-03-25T08:38:56.002Z,7.50
2023-03-25T08:41:29.537Z,7.50
2023-03-25T08:46:35.362Z,7.57
2023-03-25T08:49:08.949Z,7.63
2023-03-25T08:51:42.296Z,7.67
2023-03-25T08:54:16.150Z,7.71
2023-03-25T08:56:49.859Z,7.74
2023-03-25T08:59:23.112Z,7.81
2023-03-25T09:01:58.792Z,7.87
2023-03-25T09:04:32.837Z,7.86
2023-03-25T09:07:11.770Z,7.95
2023-03-25T09:09:43.046Z,8.05
2023-03-25T09:12:27.302Z,8.21
2023-03-25T09:15:03.168Z,8.24
2023-03-25T09:17:36.806Z,8.28
2023-03-25T09:20:12.200Z,8.46
2023-03-25T09:22:45.695Z,8.58
2023-03-25T09:25:19.584Z,8.72
2023-03-25T09:27:53.129Z,8.79
2023-03-25T09:30:26.515Z,8.90
2023-03-25T09:33:00.165Z,8.85
2023-03-25T09:35:33.852Z,8.71
2023-03-25T09:38:07.602Z,8.70
2023-03-25T09:40:43.785Z,8.66
2023-03-25T09:43:26.609Z,8.66
2023-03-25T09:46:01.446Z,8.62
2023-03-25T09:48:38.416Z,8.53
2023-03-25T09:51:15.584Z,8.52
2023-03-25T09:53:52.239Z,8.52
2023-03-25T09:56:28.802Z,8.49
2023-03-25T09:59:05.317Z,8.57
2023-03-25T10:01:43.473Z,8.67
2023-03-25T10:04:39.160Z,8.82
2023-03-25T10:07:17.378Z,8.95
2023-03-25T10:09:54.245Z,9.01
2023-03-25T10:12:35.896Z,9.13
2023-03-25T10:15:21.406Z,9.16
2023-03-25T10:18:08.697Z,9.15
2023-03-25T10:20:48.211Z,9.16
2023-03-25T10:23:25.835Z,9.30
2023-03-25T10:26:02.351Z,9.48
2023-03-25T10:28:38.912Z,9.54
2023-03-25T10:31:16.060Z,9.63
2023-03-25T10:33:53.214Z,9.64
2023-03-25T10:36:30.316Z,9.57
2023-03-25T10:39:06.077Z,9.48
2023-03-25T10:41:43.594Z,9.48
2023-03-25T10:44:17.158Z,9.48
2023-03-25T10:46:53.433Z,9.48
2023-03-25T10:49:29.943Z,9.64
2023-03-25T10:52:05.117Z,9.88
2023-03-25T10:54:41.745Z,10.08
2023-03-25T10:57:19.056Z,10.12
2023-03-25T11:00:02.101Z,10.17
2023-03-25T11:02:37.625Z,10.12
2023-03-25T11:05:15.936Z,10.02
2023-03-25T11:07:53.145Z,10.01
2023-03-25T11:10:29.380Z,9.94
2023-03-25T11:13:06.756Z,9.91
2023-03-25T11:15:42.057Z,9.90
2023-03-25T11:21:01.405Z,10.02
2023-03-25T11:23:37.242Z,9.95
2023-03-25T11:26:14.810Z,9.95
2023-03-25T11:28:50.780Z,9.94
2023-03-25T11:31:26.572Z,9.79
2023-03-25T11:34:12.997Z,9.69
2023-03-25T11:36:55.486Z,9.72
2023-03-25T11:39:33.105Z,9.81
2023-03-25T11:42:17.463Z,9.88
2023-03-25T11:44:54.897Z,9.92
2023-03-25T11:47:30.875Z,9.86
2023-03-25T11:50:05.598Z,9.86
2023-03-25T11:52:42.981Z,9.83
2023-03-25T11:55:21.225Z,9.87
2023-03-25T11:57:56.623Z,9.84
2023-03-25T12:00:37.404Z,9.73
2023-03-25T12:03:20.786Z,9.72
2023-03-25T12:06:02.572Z,9.73
2023-03-25T12:08:44.608Z,9.72
2023-03-25T12:11:21.774Z,9.68
2023-03-25T12:14:09.009Z,9.66
2023-03-25T12:16:45.859Z,9.66
2023-03-25T12:19:23.609Z,9.70
2023-03-25T12:22:00.207Z,9.63
2023-03-25T12:24:44.868Z,9.73
2023-03-25T12:27:29.478Z,9.69
2023-03-25T12:30:07.630Z,9.68
2023-03-25T12:35:54.145Z,9.98
2023-03-25T12:38:36.552Z,9.97
2023-03-25T12:41:19.958Z,10.08
2023-03-25T12:44:06.959Z,10.07
2023-03-25T12:47:00.775Z,10.03
2023-03-25T12:49:46.353Z,10.06
2023-03-25T12:52:24.082Z,10.12
2023-03-25T12:55:07.643Z,10.11
2023-03-25T12:57:49.144Z,10.11
2023-03-25T13:00:33.970Z,10.17
2023-03-25T13:06:24.840Z,10.45
2023-03-25T13:09:01.263Z,10.33
2023-03-25T13:11:37.265Z,10.30
2023-03-25T13:14:14.737Z,10.33
2023-03-25T13:16:51.919Z,10.45
2023-03-25T13:19:28.338Z,10.49
2023-03-25T13:22:04.731Z,10.46
2023-03-25T13:24:43.252Z,10.33
2023-03-25T13:27:17.528Z,10.31
2023-03-25T13:29:53.880Z,10.20
2023-03-25T13:32:30.369Z,10.14
2023-03-25T13:35:15.059Z,10.08
2023-03-25T13:37:53.147Z,10.07
2023-03-25T13:40:29.494Z,10.02
2023-03-25T13:43:05.995Z,10.01
2023-03-25T13:45:44.825Z,10.04
2023-03-25T13:48:25.066Z,10.09
2023-03-25T13:51:03.054Z,10.12
2023-03-25T13:53:39.743Z,10.11
2023-03-25T13:56:36.381Z,10.08
2023-03-25T13:59:27.532Z,10.09
2023-03-25T14:02:25.415Z,10.10
2023-03-25T14:05:19.557Z,10.08
2023-03-25T14:08:33.179Z,10.08
2023-03-25T14:11:16.909Z,10.15
2023-03-25T14:13:53.434Z,10.25
2023-03-25T14:16:30.724Z,10.25
2023-03-25T14:19:06.792Z,10.29
2023-03-25T14:21:46.052Z,10.33
2023-03-25T14:24:22.465Z,10.34
2023-03-25T14:26:58.901Z,10.37
2023-03-25T14:29:38.440Z,10.28
2023-03-25T14:32:32.925Z,10.23
2023-03-25T14:35:41.834Z,10.23
2023-03-25T14:38:53.804Z,10.24
2023-03-25T14:41:57.832Z,10.17
2023-03-25T14:44:33.264Z,10.10
2023-03-25T14:47:30.423Z,10.00
2023-03-25T14:50:13.168Z,9.98
2023-03-25T14:52:48.716Z,9.95
2023-03-25T14:55:24.316Z,9.92
2023-03-25T14:58:02.083Z,9.89
2023-03-25T15:00:38.959Z,9.88
2023-03-25T15:03:16.168Z,9.84
2023-03-25T15:05:58.198Z,9.82
2023-03-25T15:08:34.984Z,9.77
2023-03-25T15:11:11.970Z,9.75
2023-03-25T15:13:49.704Z,9.73
2023-03-25T15:16:30.612Z,9.70
2023-03-25T15:19:07.629Z,9.68
2023-03-25T15:22:20.481Z,9.67
2023-03-25T15:24:59.988Z,9.65
2023-03-25T15:27:53.006Z,9.58
2023-03-25T15:30:46.327Z,9.54
2023-03-25T15:33:26.119Z,9.50
2023-03-25T15:36:08.628Z,9.47
2023-03-25T15:39:00.397Z,9.44
2023-03-25T15:41:47.104Z,9.44
2023-03-25T15:44:58.892Z,9.45
2023-03-25T15:48:10.034Z,9.41
2023-03-25T15:54:03.377Z,9.41
2023-03-25T15:56:40.875Z,9.25
2023-03-25T15:59:19.484Z,9.22
2023-03-25T16:01:54.616Z,9.23
2023-03-25T16:04:32.225Z,9.22
2023-03-25T16:07:09.173Z,9.18
2023-03-25T16:09:49.285Z,9.19
2023-03-25T16:12:25.174Z,9.18
2023-03-25T16:14:58.554Z,9.15
2023-03-25T16:17:35.222Z,9.13
2023-03-25T16:20:13.459Z,9.13
2023-03-25T16:22:51.125Z,9.08
2023-03-25T16:25:28.219Z,9.08
2023-03-25T16:28:07.255Z,9.06
2023-03-25T16:30:42.897Z,9.04
2023-03-25T16:33:20.564Z,9.03
2023-03-25T16:35:57.123Z,9.02
2023-03-25T16:38:31.764Z,9.00
2023-03-25T16:41:07.585Z,8.97
2023-03-25T16:43:41.456Z,8.97
2023-03-25T16:46:16.442Z,8.97
2023-03-25T16:48:54.384Z,8.99
2023-03-25T16:51:34.412Z,8.96
2023-03-25T16:54:13.790Z,8.93
2023-03-25T16:56:48.424Z,8.92
2023-03-25T16:59:25.179Z,8.95
2023-03-25T17:02:01.719Z,8.92
2023-03-25T17:04:42.194Z,8.93
2023-03-25T17:07:20.020Z,8.92
2023-03-25T17:09:52.857Z,8.94
2023-03-25T17:12:35.420Z,9.02
2023-03-25T17:15:17.601Z,8.96
2023-03-25T17:17:56.721Z,8.92
2023-03-25T17:20:34.732Z,8.90
2023-03-25T17:23:10.964Z,8.89
2023-03-25T17:25:54.981Z,8.90
2023-03-25T17:28:35.381Z,8.91
2023-03-25T17:31:26.033Z,8.93
2023-03-25T17:36:47.802Z,9.04
2023-03-25T17:39:23.466Z,8.87
2023-03-25T17:42:01.730Z,8.97
2023-03-25T17:44:37.477Z,8.93
2023-03-25T17:47:14.724Z,8.92
2023-03-25T17:49:49.169Z,8.92
2023-03-25T17:52:22.610Z,8.89
2023-03-25T17:54:55.871Z,8.88
2023-03-25T17:57:38.615Z,8.90
2023-03-25T18:00:19.921Z,8.89
2023-03-25T18:03:03.360Z,8.90
2023-03-25T18:05:37.281Z,8.88
2023-03-25T18:08:14.237Z,8.83
2023-03-25T18:10:47.844Z,8.79
2023-03-25T18:13:23.928Z,8.81
2023-03-25T18:15:58.878Z,8.84
2023-03-25T18:18:32.668Z,8.83
2023-03-25T18:21:15.709Z,8.80
2023-03-25T18:23:49.486Z,8.80
2023-03-25T18:26:23.173Z,8.81
2023-03-25T18:28:56.580Z,8.81
2023-03-25T18:31:30.573Z,8.79
2023-03-25T18:34:04.576Z,8.75
2023-03-25T18:36:38.397Z,8.75
2023-03-25T18:39:16.852Z,8.73
2023-03-25T18:41:50.707Z,8.71
2023-03-25T18:44:26.119Z,8.69
2023-03-25T18:46:59.451Z,8.66
2023-03-25T18:49:33.092Z,8.60
2023-03-25T18:52:07.123Z,8.60
2023-03-25T18:54:41.380Z,8.56
2023-03-25T18:57:15.120Z,8.54
2023-03-25T18:59:48.458Z,8.50
2023-03-25T19:02:21.929Z,8.49
2023-03-25T19:05:00.959Z,8.48
2023-03-25T19:07:32.347Z,8.44
2023-03-25T19:10:06.190Z,8.45
2023-03-25T19:12:39.760Z,8.42
2023-03-25T19:15:15.397Z,8.40
2023-03-25T19:17:49.832Z,8.38
2023-03-25T19:20:25.380Z,8.36
2023-03-25T19:22:59.339Z,8.31
2023-03-25T19:25:32.985Z,8.30
2023-03-25T19:28:06.930Z,8.26
2023-03-25T19:30:40.975Z,8.23
2023-03-25T19:33:15.556Z,8.19
2023-03-25T19:35:54.436Z,8.17
2023-03-25T19:38:28.840Z,8.16
2023-03-25T19:41:08.485Z,8.16
2023-03-25T19:43:42.363Z,8.15
2023-03-25T19:46:16.047Z,8.14
2023-03-25T19:48:49.464Z,8.09
2023-03-25T19:51:22.880Z,8.08
2023-03-25T19:53:57.805Z,8.06
2023-03-25T19:56:31.595Z,8.06
2023-03-25T19:59:05.269Z,8.06
2023-03-25T20:01:38.838Z,8.06
2023-03-25T20:04:14.958Z,8.06
2023-03-25T20:06:48.793Z,8.07
2023-03-25T20:09:41.901Z,8.06
2023-03-25T20:12:16.842Z,8.05
2023-03-25T20:14:50.987Z,8.04
2023-03-25T20:17:24.641Z,8.04
2023-03-25T20:19:58.373Z,8.03
2023-03-25T20:22:33.025Z,8.02
2023-03-25T20:25:07.931Z,8.01
2023-03-25T20:27:42.102Z,8.01
2023-03-25T20:30:18.848Z,7.99
2023-03-25T20:32:52.580Z,7.96
2023-03-25T20:35:49.835Z,7.92
2023-03-25T20:38:23.686Z,7.92
2023-03-25T20:40:57.562Z,7.90
2023-03-25T20:43:31.432Z,7.89
2023-03-25T20:46:05.507Z,7.89
2023-03-25T20:48:38.996Z,7.85
2023-03-25T20:51:12.912Z,7.84
2023-03-25T20:53:46.528Z,7.82
2023-03-25T20:56:19.879Z,7.80
2023-03-25T20:58:54.097Z,7.77
2023-03-25T21:01:28.040Z,7.75
2023-03-25T21:04:02.442Z,7.73
2023-03-25T21:06:35.915Z,7.71
2023-03-25T21:09:10.760Z,7.71
2023-03-25T21:11:44.278Z,7.71
2023-03-25T21:14:19.160Z,7.71
2023-03-25T21:16:54.478Z,7.70
2023-03-25T21:19:28.293Z,7.72
2023-03-25T21:22:01.939Z,7.69
2023-03-25T21:24:35.992Z,7.69
2023-03-25T21:27:09.381Z,7.68
2023-03-25T21:29:42.513Z,7.67
2023-03-25T21:32:16.011Z,7.66
2023-03-25T21:34:49.720Z,7.65
2023-03-25T21:37:23.248Z,7.63
2023-03-25T21:39:58.313Z,7.61
2023-03-25T21:42:32.481Z,7.59
2023-03-25T21:45:08.082Z,7.59
2023-03-25T21:47:41.874Z,7.57
2023-03-25T21:50:16.634Z,7.57
2023-03-25T21:52:50.345Z,7.55
2023-03-25T21:55:24.167Z,7.54
2023-03-25T21:57:59.818Z,7.52
2023-03-25T22:00:33.532Z,7.52
2023-03-25T22:03:08.964Z,7.49
2023-03-25T22:05:42.734Z,7.50
2023-03-25T22:08:17.092Z,7.49
2023-03-25T22:10:50.796Z,7.49
2023-03-25T22:13:24.488Z,7.49
2023-03-25T22:15:57.833Z,7.46
2023-03-25T22:18:32.710Z,7.45
2023-03-25T22:21:12.534Z,7.44
2023-03-25T22:23:47.010Z,7.44
2023-03-25T22:26:21.288Z,7.44
2023-03-25T22:28:58.802Z,7.44
2023-03-25T22:31:34.000Z,7.43
2023-03-25T22:34:11.779Z,7.42
2023-03-25T22:36:48.744Z,7.40
2023-03-25T22:39:25.028Z,7.37
2023-03-25T22:41:58.686Z,7.39
2023-03-25T22:44:32.197Z,7.37
2023-03-25T22:47:06.081Z,7.37
2023-03-25T22:49:39.721Z,7.38
2023-03-25T22:52:13.118Z,7.38
2023-03-25T22:54:46.958Z,7.38
2023-03-25T22:57:21.494Z,7.37
2023-03-25T22:59:55.350Z,7.37
2023-03-25T23:02:29.350Z,7.38
2023-03-25T23:05:03.331Z,7.38
2023-03-25T23:07:37.141Z,7.37
2023-03-25T23:10:13.298Z,7.37
2023-03-25T23:12:47.122Z,7.36
2023-03-25T23:15:20.692Z,7.36
2023-03-25T23:17:53.913Z,7.36
2023-03-25T23:20:28.094Z,7.36
2023-03-25T23:23:02.873Z,7.35
2023-03-25T23:25:36.353Z,7.35
2023-03-25T23:28:10.404Z,7.36
2023-03-25T23:30:46.575Z,7.36
2023-03-25T23:33:20.530Z,7.37
2023-03-25T23:35:54.214Z,7.36
2023-03-25T23:38:27.796Z,7.35
2023-03-25T23:41:06.342Z,7.37
2023-03-25T23:43:41.371Z,7.35
2023-03-25T23:46:17.131Z,7.33
2023-03-25T23:48:52.757Z,7.32
2023-03-25T23:51:27.218Z,7.30
2023-03-25T23:54:00.665Z,7.30
2023-03-25T23:56:34.597Z,7.30
2023-03-25T23:59:08.241Z,7.34
